sensor_id;sensor_type;location;lat;lon;timestamp;P1;durP1;ratioP1;P2;durP2;ratioP2
18576;SDS011;9418;52.694;13.294;2023-02-08T00:00:20;25.57;;;18.47;;
18576;SDS011;9418;52.694;13.294;2023-02-08T00:02:47;30.90;;;19.30;;
18576;SDS011;9418;52.694;13.294;2023-02-08T00:05:14;29.13;;;20.90;;
18576;SDS011;9418;52.694;13.294;2023-02-08T00:07:41;25.70;;;17.27;;
18576;SDS011;9418;52.694;13.294;2023-02-08T00:10:08;26.83;;;18.20;;
18576;SDS011;9418;52.694;13.294;2023-02-08T00:12:35;30.13;;;19.03;;
18576;SDS011;9418;52.694;13.294;2023-02-08T00:15:04;25.70;;;18.63;;
18576;SDS011;9418;52.694;13.294;2023-02-08T00:17:31;23.90;;;17.87;;
18576;SDS011;9418;52.694;13.294;2023-02-08T00:19:57;23.23;;;17.17;;
18576;SDS011;9418;52.694;13.294;2023-02-08T00:22:24;34.67;;;19.60;;
18576;SDS011;9418;52.694;13.294;2023-02-08T00:24:50;27.87;;;18.10;;
18576;SDS011;9418;52.694;13.294;2023-02-08T00:27:17;23.93;;;17.90;;
18576;SDS011;9418;52.694;13.294;2023-02-08T00:29:44;25.90;;;17.63;;
18576;SDS011;9418;52.694;13.294;2023-02-08T00:32:12;28.77;;;18.27;;
18576;SDS011;9418;52.694;13.294;2023-02-08T00:34:38;30.10;;;19.53;;
18576;SDS011;9418;52.694;13.294;2023-02-08T00:37:05;25.40;;;18.37;;
18576;SDS011;9418;52.694;13.294;2023-02-08T00:39:31;25.53;;;18.97;;
18576;SDS011;9418;52.694;13.294;2023-02-08T00:41:58;28.27;;;19.23;;
18576;SDS011;9418;52.694;13.294;2023-02-08T00:44:25;30.50;;;20.30;;
18576;SDS011;9418;52.694;13.294;2023-02-08T00:46:51;26.03;;;19.10;;
18576;SDS011;9418;52.694;13.294;2023-02-08T00:49:20;30.47;;;20.33;;
18576;SDS011;9418;52.694;13.294;2023-02-08T00:51:46;32.17;;;19.43;;
18576;SDS011;9418;52.694;13.294;2023-02-08T00:54:13;27.37;;;20.23;;
18576;SDS011;9418;52.694;13.294;2023-02-08T00:56:41;28.67;;;18.70;;
18576;SDS011;9418;52.694;13.294;2023-02-08T00:59:07;26.43;;;20.10;;
18576;SDS011;9418;52.694;13.294;2023-02-08T01:01:34;29.83;;;21.00;;
18576;SDS011;9418;52.694;13.294;2023-02-08T01:04:01;28.60;;;19.87;;
18576;SDS011;9418;52.694;13.294;2023-02-08T01:06:29;22.37;;;17.67;;
18576;SDS011;9418;52.694;13.294;2023-02-08T01:08:56;31.57;;;20.50;;
18576;SDS011;9418;52.694;13.294;2023-02-08T01:11:23;33.10;;;19.63;;
18576;SDS011;9418;52.694;13.294;2023-02-08T01:13:51;28.17;;;19.03;;
18576;SDS011;9418;52.694;13.294;2023-02-08T01:16:19;28.97;;;19.67;;
18576;SDS011;9418;52.694;13.294;2023-02-08T01:18:48;27.03;;;19.60;;
18576;SDS011;9418;52.694;13.294;2023-02-08T01:21:18;25.67;;;19.43;;
18576;SDS011;9418;52.694;13.294;2023-02-08T01:23:47;31.90;;;19.40;;
18576;SDS011;9418;52.694;13.294;2023-02-08T01:26:14;34.20;;;20.47;;
18576;SDS011;9418;52.694;13.294;2023-02-08T01:28:42;28.27;;;19.27;;
18576;SDS011;9418;52.694;13.294;2023-02-08T01:31:10;24.73;;;19.30;;
18576;SDS011;9418;52.694;13.294;2023-02-08T01:33:38;29.53;;;20.10;;
18576;SDS011;9418;52.694;13.294;2023-02-08T01:36:06;26.37;;;19.67;;
18576;SDS011;9418;52.694;13.294;2023-02-08T01:38:33;25.80;;;18.93;;
18576;SDS011;9418;52.694;13.294;2023-02-08T01:41:01;30.20;;;20.00;;
18576;SDS011;9418;52.694;13.294;2023-02-08T01:43:31;31.70;;;21.57;;
18576;SDS011;9418;52.694;13.294;2023-02-08T01:45:59;32.00;;;20.20;;
18576;SDS011;9418;52.694;13.294;2023-02-08T01:48:27;29.63;;;20.17;;
18576;SDS011;9418;52.694;13.294;2023-02-08T01:50:56;29.27;;;20.90;;
18576;SDS011;9418;52.694;13.294;2023-02-08T01:53:25;29.40;;;19.30;;
18576;SDS011;9418;52.694;13.294;2023-02-08T01:55:54;31.07;;;21.37;;
18576;SDS011;9418;52.694;13.294;2023-02-08T01:58:25;28.00;;;20.60;;
18576;SDS011;9418;52.694;13.294;2023-02-08T02:00:53;29.50;;;20.40;;
18576;SDS011;9418;52.694;13.294;2023-02-08T02:03:20;27.83;;;20.60;;
18576;SDS011;9418;52.694;13.294;2023-02-08T02:05:49;30.93;;;20.90;;
18576;SDS011;9418;52.694;13.294;2023-02-08T02:08:18;27.30;;;19.80;;
18576;SDS011;9418;52.694;13.294;2023-02-08T02:10:46;33.43;;;21.20;;
18576;SDS011;9418;52.694;13.294;2023-02-08T02:13:15;28.40;;;20.43;;
18576;SDS011;9418;52.694;13.294;2023-02-08T02:15:46;34.70;;;22.87;;
18576;SDS011;9418;52.694;13.294;2023-02-08T02:18:15;29.77;;;21.20;;
18576;SDS011;9418;52.694;13.294;2023-02-08T02:20:51;28.03;;;20.97;;
18576;SDS011;9418;52.694;13.294;2023-02-08T02:26:37;32.00;;;21.53;;
18576;SDS011;9418;52.694;13.294;2023-02-08T02:29:25;29.63;;;21.10;;
18576;SDS011;9418;52.694;13.294;2023-02-08T02:32:17;32.60;;;22.70;;
18576;SDS011;9418;52.694;13.294;2023-02-08T02:35:01;31.07;;;20.73;;
18576;SDS011;9418;52.694;13.294;2023-02-08T02:37:36;32.77;;;21.47;;
18576;SDS011;9418;52.694;13.294;2023-02-08T02:40:14;29.93;;;22.53;;
18576;SDS011;9418;52.694;13.294;2023-02-08T02:42:49;30.47;;;21.30;;
18576;SDS011;9418;52.694;13.294;2023-02-08T02:45:44;28.23;;;20.60;;
18576;SDS011;9418;52.694;13.294;2023-02-08T02:48:18;31.07;;;21.47;;
18576;SDS011;9418;52.694;13.294;2023-02-08T02:50:48;30.93;;;21.63;;
18576;SDS011;9418;52.694;13.294;2023-02-08T02:53:21;35.40;;;21.47;;
18576;SDS011;9418;52.694;13.294;2023-02-08T02:55:57;31.57;;;20.83;;
18576;SDS011;9418;52.694;13.294;2023-02-08T02:58:28;28.97;;;20.53;;
18576;SDS011;9418;52.694;13.294;2023-02-08T03:00:57;32.37;;;22.27;;
18576;SDS011;9418;52.694;13.294;2023-02-08T03:03:27;32.43;;;21.33;;
18576;SDS011;9418;52.694;13.294;2023-02-08T03:05:57;33.83;;;20.87;;
18576;SDS011;9418;52.694;13.294;2023-02-08T03:08:33;32.43;;;21.33;;
18576;SDS011;9418;52.694;13.294;2023-02-08T03:11:16;26.20;;;19.40;;
18576;SDS011;9418;52.694;13.294;2023-02-08T03:13:55;29.83;;;21.40;;
18576;SDS011;9418;52.694;13.294;2023-02-08T03:16:45;28.60;;;20.57;;
18576;SDS011;9418;52.694;13.294;2023-02-08T03:19:26;31.30;;;21.37;;
18576;SDS011;9418;52.694;13.294;2023-02-08T03:22:00;29.40;;;21.10;;
18576;SDS011;9418;52.694;13.294;2023-02-08T03:24:37;30.87;;;21.03;;
18576;SDS011;9418;52.694;13.294;2023-02-08T03:27:11;31.30;;;21.60;;
18576;SDS011;9418;52.694;13.294;2023-02-08T03:29:45;30.90;;;22.10;;
18576;SDS011;9418;52.694;13.294;2023-02-08T03:32:17;33.17;;;22.60;;
18576;SDS011;9418;52.694;13.294;2023-02-08T03:34:52;38.47;;;20.97;;
18576;SDS011;9418;52.694;13.294;2023-02-08T03:37:21;33.90;;;21.00;;
18576;SDS011;9418;52.694;13.294;2023-02-08T03:39:53;33.30;;;22.30;;
18576;SDS011;9418;52.694;13.294;2023-02-08T03:42:26;31.43;;;21.23;;
18576;SDS011;9418;52.694;13.294;2023-02-08T03:44:56;29.23;;;21.17;;
18576;SDS011;9418;52.694;13.294;2023-02-08T03:47:25;26.87;;;19.70;;
18576;SDS011;9418;52.694;13.294;2023-02-08T03:49:56;26.70;;;20.20;;
18576;SDS011;9418;52.694;13.294;2023-02-08T03:52:25;26.93;;;20.37;;
18576;SDS011;9418;52.694;13.294;2023-02-08T03:54:55;33.13;;;22.00;;
18576;SDS011;9418;52.694;13.294;2023-02-08T03:57:26;28.17;;;19.93;;
18576;SDS011;9418;52.694;13.294;2023-02-08T03:59:56;30.97;;;21.90;;
18576;SDS011;9418;52.694;13.294;2023-02-08T04:02:26;33.20;;;22.80;;
18576;SDS011;9418;52.694;13.294;2023-02-08T04:04:57;29.53;;;22.10;;
18576;SDS011;9418;52.694;13.294;2023-02-08T04:07:25;32.97;;;22.77;;
18576;SDS011;9418;52.694;13.294;2023-02-08T04:09:52;30.90;;;23.70;;
18576;SDS011;9418;52.694;13.294;2023-02-08T04:12:18;34.27;;;23.70;;
18576;SDS011;9418;52.694;13.294;2023-02-08T04:14:45;32.80;;;23.50;;
18576;SDS011;9418;52.694;13.294;2023-02-08T04:17:12;33.13;;;24.13;;
18576;SDS011;9418;52.694;13.294;2023-02-08T04:19:38;36.40;;;23.77;;
18576;SDS011;9418;52.694;13.294;2023-02-08T04:22:06;33.10;;;22.70;;
18576;SDS011;9418;52.694;13.294;2023-02-08T04:24:33;33.20;;;21.90;;
18576;SDS011;9418;52.694;13.294;2023-02-08T04:26:59;35.33;;;22.70;;
18576;SDS011;9418;52.694;13.294;2023-02-08T04:29:26;30.40;;;22.37;;
18576;SDS011;9418;52.694;13.294;2023-02-08T04:31:53;34.37;;;23.37;;
18576;SDS011;9418;52.694;13.294;2023-02-08T04:34:19;32.40;;;22.13;;
18576;SDS011;9418;52.694;13.294;2023-02-08T04:36:46;35.43;;;23.50;;
18576;SDS011;9418;52.694;13.294;2023-02-08T04:39:14;33.83;;;21.43;;
18576;SDS011;9418;52.694;13.294;2023-02-08T04:41:41;33.10;;;22.30;;
18576;SDS011;9418;52.694;13.294;2023-02-08T04:44:07;31.17;;;22.80;;
18576;SDS011;9418;52.694;13.294;2023-02-08T04:46:34;31.13;;;20.50;;
18576;SDS011;9418;52.694;13.294;2023-02-08T04:49:00;32.67;;;20.87;;
18576;SDS011;9418;52.694;13.294;2023-02-08T04:51:27;26.40;;;19.77;;
18576;SDS011;9418;52.694;13.294;2023-02-08T04:53:54;27.67;;;20.20;;
18576;SDS011;9418;52.694;13.294;2023-02-08T04:56:21;30.40;;;20.60;;
18576;SDS011;9418;52.694;13.294;2023-02-08T04:58:48;26.83;;;20.60;;
18576;SDS011;9418;52.694;13.294;2023-02-08T05:01:15;31.00;;;20.90;;
18576;SDS011;9418;52.694;13.294;2023-02-08T05:03:41;25.60;;;19.10;;
18576;SDS011;9418;52.694;13.294;2023-02-08T05:06:08;26.47;;;18.77;;
18576;SDS011;9418;52.694;13.294;2023-02-08T05:08:34;30.07;;;20.47;;
18576;SDS011;9418;52.694;13.294;2023-02-08T05:11:01;29.50;;;20.13;;
18576;SDS011;9418;52.694;13.294;2023-02-08T05:13:29;26.20;;;19.53;;
18576;SDS011;9418;52.694;13.294;2023-02-08T05:15:56;27.83;;;19.73;;
18576;SDS011;9418;52.694;13.294;2023-02-08T05:18:22;27.10;;;18.40;;
18576;SDS011;9418;52.694;13.294;2023-02-08T05:20:52;30.87;;;19.57;;
18576;SDS011;9418;52.694;13.294;2023-02-08T05:23:19;33.13;;;21.33;;
18576;SDS011;9418;52.694;13.294;2023-02-08T05:25:46;28.07;;;19.50;;
18576;SDS011;9418;52.694;13.294;2023-02-08T05:28:13;32.50;;;19.90;;
18576;SDS011;9418;52.694;13.294;2023-02-08T05:30:41;29.93;;;20.50;;
18576;SDS011;9418;52.694;13.294;2023-02-08T05:33:07;31.27;;;20.00;;
18576;SDS011;9418;52.694;13.294;2023-02-08T05:35:34;28.43;;;20.30;;
18576;SDS011;9418;52.694;13.294;2023-02-08T05:38:00;29.23;;;18.40;;
18576;SDS011;9418;52.694;13.294;2023-02-08T05:40:27;30.57;;;20.53;;
18576;SDS011;9418;52.694;13.294;2023-02-08T05:42:54;27.23;;;19.90;;
18576;SDS011;9418;52.694;13.294;2023-02-08T05:45:20;24.57;;;18.57;;
18576;SDS011;9418;52.694;13.294;2023-02-08T05:47:48;29.10;;;20.63;;
18576;SDS011;9418;52.694;13.294;2023-02-08T05:50:14;27.93;;;19.57;;
18576;SDS011;9418;52.694;13.294;2023-02-08T05:52:41;29.03;;;21.03;;
18576;SDS011;9418;52.694;13.294;2023-02-08T05:55:08;29.80;;;20.10;;
18576;SDS011;9418;52.694;13.294;2023-02-08T05:57:34;28.60;;;19.20;;
18576;SDS011;9418;52.694;13.294;2023-02-08T06:00:02;30.87;;;20.73;;
18576;SDS011;9418;52.694;13.294;2023-02-08T06:02:30;31.53;;;21.50;;
18576;SDS011;9418;52.694;13.294;2023-02-08T06:04:57;28.13;;;21.20;;
18576;SDS011;9418;52.694;13.294;2023-02-08T06:07:24;29.93;;;20.20;;
18576;SDS011;9418;52.694;13.294;2023-02-08T06:09:51;25.97;;;19.80;;
18576;SDS011;9418;52.694;13.294;2023-02-08T06:12:18;30.10;;;19.73;;
18576;SDS011;9418;52.694;13.294;2023-02-08T06:14:44;29.37;;;20.33;;
18576;SDS011;9418;52.694;13.294;2023-02-08T06:17:11;30.23;;;22.17;;
18576;SDS011;9418;52.694;13.294;2023-02-08T06:19:37;28.03;;;21.13;;
18576;SDS011;9418;52.694;13.294;2023-02-08T06:22:05;32.10;;;20.83;;
18576;SDS011;9418;52.694;13.294;2023-02-08T06:24:32;29.87;;;21.07;;
18576;SDS011;9418;52.694;13.294;2023-02-08T06:26:58;26.33;;;20.27;;
18576;SDS011;9418;52.694;13.294;2023-02-08T06:29:25;27.33;;;20.70;;
18576;SDS011;9418;52.694;13.294;2023-02-08T06:31:52;30.43;;;20.93;;
18576;SDS011;9418;52.694;13.294;2023-02-08T06:34:18;32.13;;;20.10;;
18576;SDS011;9418;52.694;13.294;2023-02-08T06:36:45;30.00;;;21.30;;
18576;SDS011;9418;52.694;13.294;2023-02-08T06:39:13;32.90;;;20.70;;
18576;SDS011;9418;52.694;13.294;2023-02-08T06:41:39;26.33;;;20.10;;
18576;SDS011;9418;52.694;13.294;2023-02-08T06:44:06;31.60;;;20.53;;
18576;SDS011;9418;52.694;13.294;2023-02-08T06:46:32;30.77;;;21.53;;
18576;SDS011;9418;52.694;13.294;2023-02-08T06:48:59;32.23;;;21.40;;
18576;SDS011;9418;52.694;13.294;2023-02-08T06:51:26;30.27;;;21.23;;
18576;SDS011;9418;52.694;13.294;2023-02-08T06:53:52;28.43;;;20.63;;
18576;SDS011;9418;52.694;13.294;2023-02-08T06:56:20;33.93;;;21.80;;
18576;SDS011;9418;52.694;13.294;2023-02-08T06:58:47;31.23;;;20.43;;
18576;SDS011;9418;52.694;13.294;2023-02-08T07:01:13;29.90;;;21.30;;
18576;SDS011;9418;52.694;13.294;2023-02-08T07:03:40;38.37;;;22.80;;
18576;SDS011;9418;52.694;13.294;2023-02-08T07:06:10;33.77;;;24.23;;
18576;SDS011;9418;52.694;13.294;2023-02-08T07:08:37;58.93;;;38.53;;
18576;SDS011;9418;52.694;13.294;2023-02-08T07:11:07;32.97;;;22.90;;
18576;SDS011;9418;52.694;13.294;2023-02-08T07:13:35;32.43;;;20.53;;
18576;SDS011;9418;52.694;13.294;2023-02-08T07:16:03;45.30;;;26.90;;
18576;SDS011;9418;52.694;13.294;2023-02-08T07:18:29;45.47;;;27.00;;
18576;SDS011;9418;52.694;13.294;2023-02-08T07:20:56;36.20;;;25.87;;
18576;SDS011;9418;52.694;13.294;2023-02-08T07:23:23;38.40;;;24.17;;
18576;SDS011;9418;52.694;13.294;2023-02-08T07:25:56;37.10;;;25.60;;
18576;SDS011;9418;52.694;13.294;2023-02-08T07:28:23;35.37;;;23.67;;
18576;SDS011;9418;52.694;13.294;2023-02-08T07:30:52;41.70;;;24.97;;
18576;SDS011;9418;52.694;13.294;2023-02-08T07:33:19;30.03;;;22.70;;
18576;SDS011;9418;52.694;13.294;2023-02-08T07:35:46;39.67;;;23.37;;
18576;SDS011;9418;52.694;13.294;2023-02-08T07:38:13;33.77;;;22.90;;
18576;SDS011;9418;52.694;13.294;2023-02-08T07:40:39;41.40;;;24.67;;
18576;SDS011;9418;52.694;13.294;2023-02-08T07:43:06;33.43;;;23.77;;
18576;SDS011;9418;52.694;13.294;2023-02-08T07:45:32;38.57;;;24.23;;
18576;SDS011;9418;52.694;13.294;2023-02-08T07:48:03;37.30;;;23.90;;
18576;SDS011;9418;52.694;13.294;2023-02-08T07:50:29;33.30;;;24.20;;
18576;SDS011;9418;52.694;13.294;2023-02-08T07:52:56;35.77;;;25.40;;
18576;SDS011;9418;52.694;13.294;2023-02-08T07:55:23;39.63;;;24.63;;
18576;SDS011;9418;52.694;13.294;2023-02-08T07:57:49;30.83;;;22.63;;
18576;SDS011;9418;52.694;13.294;2023-02-08T08:00:17;32.97;;;24.30;;
18576;SDS011;9418;52.694;13.294;2023-02-08T08:02:44;33.90;;;23.40;;
18576;SDS011;9418;52.694;13.294;2023-02-08T08:05:11;39.13;;;23.53;;
18576;SDS011;9418;52.694;13.294;2023-02-08T08:07:38;29.23;;;21.57;;
18576;SDS011;9418;52.694;13.294;2023-02-08T08:10:05;34.23;;;24.23;;
18576;SDS011;9418;52.694;13.294;2023-02-08T08:12:31;45.53;;;24.47;;
18576;SDS011;9418;52.694;13.294;2023-02-08T08:14:58;37.13;;;24.27;;
18576;SDS011;9418;52.694;13.294;2023-02-08T08:17:25;43.43;;;25.90;;
18576;SDS011;9418;52.694;13.294;2023-02-08T08:19:51;36.20;;;25.20;;
18576;SDS011;9418;52.694;13.294;2023-02-08T08:22:19;36.00;;;23.30;;
18576;SDS011;9418;52.694;13.294;2023-02-08T08:24:46;31.60;;;22.80;;
18576;SDS011;9418;52.694;13.294;2023-02-08T08:27:12;33.57;;;23.60;;
18576;SDS011;9418;52.694;13.294;2023-02-08T08:29:39;37.03;;;22.50;;
18576;SDS011;9418;52.694;13.294;2023-02-08T08:32:05;35.60;;;23.10;;
18576;SDS011;9418;52.694;13.294;2023-02-08T08:34:32;36.93;;;23.50;;
18576;SDS011;9418;52.694;13.294;2023-02-08T08:36:59;30.70;;;22.83;;
18576;SDS011;9418;52.694;13.294;2023-02-08T08:39:28;29.20;;;21.33;;
18576;SDS011;9418;52.694;13.294;2023-02-08T08:41:56;34.57;;;23.23;;
18576;SDS011;9418;52.694;13.294;2023-02-08T08:44:23;37.60;;;22.30;;
18576;SDS011;9418;52.694;13.294;2023-02-08T08:46:50;38.47;;;24.17;;
18576;SDS011;9418;52.694;13.294;2023-02-08T08:49:19;32.47;;;22.50;;
18576;SDS011;9418;52.694;13.294;2023-02-08T08:51:46;33.10;;;23.40;;
18576;SDS011;9418;52.694;13.294;2023-02-08T08:54:12;32.20;;;23.50;;
18576;SDS011;9418;52.694;13.294;2023-02-08T08:56:40;32.50;;;21.93;;
18576;SDS011;9418;52.694;13.294;2023-02-08T08:59:07;33.63;;;22.50;;
18576;SDS011;9418;52.694;13.294;2023-02-08T09:01:34;35.43;;;22.40;;
18576;SDS011;9418;52.694;13.294;2023-02-08T09:04:00;34.93;;;22.70;;
18576;SDS011;9418;52.694;13.294;2023-02-08T09:06:27;35.00;;;23.80;;
18576;SDS011;9418;52.694;13.294;2023-02-08T09:08:53;32.67;;;23.60;;
18576;SDS011;9418;52.694;13.294;2023-02-08T09:11:20;36.60;;;22.63;;
18576;SDS011;9418;52.694;13.294;2023-02-08T09:13:48;33.90;;;22.47;;
18576;SDS011;9418;52.694;13.294;2023-02-08T09:16:17;37.27;;;23.17;;
18576;SDS011;9418;52.694;13.294;2023-02-08T09:18:44;39.33;;;25.10;;
18576;SDS011;9418;52.694;13.294;2023-02-08T09:21:12;31.17;;;22.63;;
18576;SDS011;9418;52.694;13.294;2023-02-08T09:23:40;35.87;;;24.53;;
18576;SDS011;9418;52.694;13.294;2023-02-08T09:26:07;33.80;;;22.90;;
18576;SDS011;9418;52.694;13.294;2023-02-08T09:28:40;37.23;;;23.17;;
18576;SDS011;9418;52.694;13.294;2023-02-08T09:31:08;32.70;;;24.20;;
18576;SDS011;9418;52.694;13.294;2023-02-08T09:33:36;33.10;;;24.13;;
18576;SDS011;9418;52.694;13.294;2023-02-08T09:36:03;39.37;;;23.80;;
18576;SDS011;9418;52.694;13.294;2023-02-08T09:38:31;36.03;;;23.57;;
18576;SDS011;9418;52.694;13.294;2023-02-08T09:41:11;39.80;;;25.53;;
18576;SDS011;9418;52.694;13.294;2023-02-08T09:43:51;41.63;;;26.77;;
18576;SDS011;9418;52.694;13.294;2023-02-08T09:46:27;39.00;;;26.10;;
18576;SDS011;9418;52.694;13.294;2023-02-08T09:48:57;38.30;;;24.97;;
18576;SDS011;9418;52.694;13.294;2023-02-08T09:51:27;40.70;;;26.00;;
18576;SDS011;9418;52.694;13.294;2023-02-08T09:53:58;38.23;;;26.10;;
18576;SDS011;9418;52.694;13.294;2023-02-08T09:56:31;41.20;;;26.43;;
18576;SDS011;9418;52.694;13.294;2023-02-08T09:59:04;40.93;;;24.93;;
18576;SDS011;9418;52.694;13.294;2023-02-08T10:01:32;36.00;;;24.17;;
18576;SDS011;9418;52.694;13.294;2023-02-08T10:04:02;39.07;;;26.33;;
18576;SDS011;9418;52.694;13.294;2023-02-08T10:06:32;34.83;;;25.00;;
18576;SDS011;9418;52.694;13.294;2023-02-08T10:09:00;33.50;;;22.70;;
18576;SDS011;9418;52.694;13.294;2023-02-08T10:11:34;40.53;;;25.50;;
18576;SDS011;9418;52.694;13.294;2023-02-08T10:14:17;39.03;;;25.00;;
18576;SDS011;9418;52.694;13.294;2023-02-08T10:17:01;39.17;;;26.30;;
18576;SDS011;9418;52.694;13.294;2023-02-08T10:19:46;36.73;;;23.77;;
18576;SDS011;9418;52.694;13.294;2023-02-08T10:22:26;37.43;;;24.30;;
18576;SDS011;9418;52.694;13.294;2023-02-08T10:25:11;35.40;;;25.27;;
18576;SDS011;9418;52.694;13.294;2023-02-08T10:28:01;40.13;;;25.33;;
18576;SDS011;9418;52.694;13.294;2023-02-08T10:30:43;41.57;;;25.77;;
18576;SDS011;9418;52.694;13.294;2023-02-08T10:33:17;36.27;;;25.70;;
18576;SDS011;9418;52.694;13.294;2023-02-08T10:35:50;49.70;;;27.10;;
18576;SDS011;9418;52.694;13.294;2023-02-08T10:38:22;40.83;;;27.03;;
18576;SDS011;9418;52.694;13.294;2023-02-08T10:40:51;40.30;;;26.43;;
18576;SDS011;9418;52.694;13.294;2023-02-08T10:43:23;37.80;;;27.03;;
18576;SDS011;9418;52.694;13.294;2023-02-08T10:45:59;37.97;;;25.87;;
18576;SDS011;9418;52.694;13.294;2023-02-08T10:48:36;48.07;;;26.23;;
18576;SDS011;9418;52.694;13.294;2023-02-08T10:51:13;49.53;;;25.57;;
18576;SDS011;9418;52.694;13.294;2023-02-08T10:53:41;46.23;;;26.83;;
18576;SDS011;9418;52.694;13.294;2023-02-08T10:56:10;44.50;;;28.47;;
18576;SDS011;9418;52.694;13.294;2023-02-08T10:58:50;41.30;;;25.17;;
18576;SDS011;9418;52.694;13.294;2023-02-08T11:01:17;44.30;;;28.17;;
18576;SDS011;9418;52.694;13.294;2023-02-08T11:06:37;38.83;;;26.17;;
18576;SDS011;9418;52.694;13.294;2023-02-08T11:09:06;38.60;;;25.30;;
18576;SDS011;9418;52.694;13.294;2023-02-08T11:11:46;43.43;;;27.20;;
18576;SDS011;9418;52.694;13.294;2023-02-08T11:14:17;44.47;;;28.37;;
18576;SDS011;9418;52.694;13.294;2023-02-08T11:16:48;40.23;;;28.07;;
18576;SDS011;9418;52.694;13.294;2023-02-08T11:19:19;45.73;;;28.07;;
18576;SDS011;9418;52.694;13.294;2023-02-08T11:21:49;42.67;;;28.07;;
18576;SDS011;9418;52.694;13.294;2023-02-08T11:24:21;38.67;;;25.67;;
18576;SDS011;9418;52.694;13.294;2023-02-08T11:26:52;42.93;;;26.93;;
18576;SDS011;9418;52.694;13.294;2023-02-08T11:29:21;36.10;;;25.63;;
18576;SDS011;9418;52.694;13.294;2023-02-08T11:31:56;34.93;;;24.60;;
18576;SDS011;9418;52.694;13.294;2023-02-08T11:34:25;43.90;;;26.30;;
18576;SDS011;9418;52.694;13.294;2023-02-08T11:36:55;37.33;;;26.03;;
18576;SDS011;9418;52.694;13.294;2023-02-08T11:39:24;39.60;;;26.17;;
18576;SDS011;9418;52.694;13.294;2023-02-08T11:41:53;37.27;;;25.23;;
18576;SDS011;9418;52.694;13.294;2023-02-08T11:44:22;45.03;;;28.57;;
18576;SDS011;9418;52.694;13.294;2023-02-08T11:46:52;43.43;;;25.13;;
18576;SDS011;9418;52.694;13.294;2023-02-08T11:49:22;35.07;;;25.77;;
18576;SDS011;9418;52.694;13.294;2023-02-08T11:51:52;37.90;;;25.47;;
18576;SDS011;9418;52.694;13.294;2023-02-08T11:54:33;42.57;;;27.00;;
18576;SDS011;9418;52.694;13.294;2023-02-08T11:57:08;39.20;;;24.63;;
18576;SDS011;9418;52.694;13.294;2023-02-08T11:59:37;41.00;;;26.40;;
18576;SDS011;9418;52.694;13.294;2023-02-08T12:04:54;36.03;;;25.37;;
18576;SDS011;9418;52.694;13.294;2023-02-08T12:07:22;38.47;;;24.90;;
18576;SDS011;9418;52.694;13.294;2023-02-08T12:10:02;39.57;;;27.03;;
18576;SDS011;9418;52.694;13.294;2023-02-08T12:12:50;38.40;;;25.63;;
18576;SDS011;9418;52.694;13.294;2023-02-08T12:15:33;38.90;;;26.27;;
18576;SDS011;9418;52.694;13.294;2023-02-08T12:18:18;34.17;;;25.63;;
18576;SDS011;9418;52.694;13.294;2023-02-08T12:20:55;40.03;;;24.80;;
18576;SDS011;9418;52.694;13.294;2023-02-08T12:23:39;38.07;;;25.10;;
18576;SDS011;9418;52.694;13.294;2023-02-08T12:26:16;48.10;;;28.23;;
18576;SDS011;9418;52.694;13.294;2023-02-08T12:28:52;40.83;;;25.70;;
18576;SDS011;9418;52.694;13.294;2023-02-08T12:31:30;40.60;;;26.60;;
18576;SDS011;9418;52.694;13.294;2023-02-08T12:34:09;35.97;;;25.33;;
18576;SDS011;9418;52.694;13.294;2023-02-08T12:36:46;42.13;;;26.53;;
18576;SDS011;9418;52.694;13.294;2023-02-08T12:39:43;41.43;;;25.90;;
18576;SDS011;9418;52.694;13.294;2023-02-08T12:42:37;43.90;;;26.67;;
18576;SDS011;9418;52.694;13.294;2023-02-08T12:45:15;39.43;;;24.47;;
18576;SDS011;9418;52.694;13.294;2023-02-08T12:48:03;39.97;;;26.30;;
18576;SDS011;9418;52.694;13.294;2023-02-08T12:50:40;37.50;;;27.20;;
18576;SDS011;9418;52.694;13.294;2023-02-08T12:53:17;39.80;;;25.40;;
18576;SDS011;9418;52.694;13.294;2023-02-08T12:55:47;41.17;;;26.80;;
18576;SDS011;9418;52.694;13.294;2023-02-08T12:58:21;41.13;;;26.10;;
18576;SDS011;9418;52.694;13.294;2023-02-08T13:00:53;35.90;;;26.87;;
18576;SDS011;9418;52.694;13.294;2023-02-08T13:03:26;39.53;;;27.70;;
18576;SDS011;9418;52.694;13.294;2023-02-08T13:05:59;35.63;;;24.23;;
18576;SDS011;9418;52.694;13.294;2023-02-08T13:08:31;32.80;;;23.77;;
18576;SDS011;9418;52.694;13.294;2023-02-08T13:11:05;39.80;;;26.33;;
18576;SDS011;9418;52.694;13.294;2023-02-08T13:13:37;36.73;;;24.17;;
18576;SDS011;9418;52.694;13.294;2023-02-08T13:16:08;40.33;;;26.43;;
18576;SDS011;9418;52.694;13.294;2023-02-08T13:18:42;36.70;;;23.87;;
18576;SDS011;9418;52.694;13.294;2023-02-08T13:21:14;35.30;;;23.93;;
18576;SDS011;9418;52.694;13.294;2023-02-08T13:23:44;42.13;;;27.43;;
18576;SDS011;9418;52.694;13.294;2023-02-08T13:26:13;42.53;;;25.60;;
18576;SDS011;9418;52.694;13.294;2023-02-08T13:28:46;41.70;;;26.60;;
18576;SDS011;9418;52.694;13.294;2023-02-08T13:31:16;35.60;;;25.33;;
18576;SDS011;9418;52.694;13.294;2023-02-08T13:33:46;37.00;;;26.33;;
18576;SDS011;9418;52.694;13.294;2023-02-08T13:36:18;34.33;;;25.60;;
18576;SDS011;9418;52.694;13.294;2023-02-08T13:38:46;34.20;;;24.40;;
18576;SDS011;9418;52.694;13.294;2023-02-08T13:41:14;36.80;;;26.10;;
18576;SDS011;9418;52.694;13.294;2023-02-08T13:43:44;43.13;;;26.40;;
18576;SDS011;9418;52.694;13.294;2023-02-08T13:46:15;35.67;;;25.03;;
18576;SDS011;9418;52.694;13.294;2023-02-08T13:48:44;37.70;;;26.03;;
18576;SDS011;9418;52.694;13.294;2023-02-08T13:54:16;35.83;;;25.53;;
18576;SDS011;9418;52.694;13.294;2023-02-08T13:56:43;39.37;;;26.97;;
18576;SDS011;9418;52.694;13.294;2023-02-08T13:59:25;35.00;;;26.53;;
18576;SDS011;9418;52.694;13.294;2023-02-08T14:04:51;36.93;;;27.07;;
18576;SDS011;9418;52.694;13.294;2023-02-08T14:07:25;44.10;;;28.70;;
18576;SDS011;9418;52.694;13.294;2023-02-08T14:10:07;37.67;;;26.60;;
18576;SDS011;9418;52.694;13.294;2023-02-08T14:13:02;41.80;;;29.97;;
18576;SDS011;9418;52.694;13.294;2023-02-08T14:15:36;40.03;;;26.20;;
18576;SDS011;9418;52.694;13.294;2023-02-08T14:18:04;42.83;;;26.57;;
18576;SDS011;9418;52.694;13.294;2023-02-08T14:20:54;36.90;;;26.80;;
18576;SDS011;9418;52.694;13.294;2023-02-08T14:23:26;42.50;;;28.33;;
18576;SDS011;9418;52.694;13.294;2023-02-08T14:25:55;44.23;;;26.97;;
18576;SDS011;9418;52.694;13.294;2023-02-08T14:28:24;37.93;;;27.53;;
18576;SDS011;9418;52.694;13.294;2023-02-08T14:30:55;36.13;;;25.77;;
18576;SDS011;9418;52.694;13.294;2023-02-08T14:33:24;42.63;;;26.83;;
18576;SDS011;9418;52.694;13.294;2023-02-08T14:35:53;47.43;;;26.10;;
18576;SDS011;9418;52.694;13.294;2023-02-08T14:41:49;42.03;;;25.50;;
18576;SDS011;9418;52.694;13.294;2023-02-08T14:50:40;42.53;;;28.57;;
18576;SDS011;9418;52.694;13.294;2023-02-08T14:53:20;39.73;;;26.33;;
18576;SDS011;9418;52.694;13.294;2023-02-08T14:55:51;44.33;;;26.70;;
18576;SDS011;9418;52.694;13.294;2023-02-08T14:58:24;37.77;;;24.00;;
18576;SDS011;9418;52.694;13.294;2023-02-08T15:00:53;38.03;;;26.60;;
18576;SDS011;9418;52.694;13.294;2023-02-08T15:03:23;35.70;;;26.53;;